createdAt,value
2022-08-07T00:00:59.490Z,3.10
2022-08-07T00:03:06.618Z,2.70
2022-08-07T00:05:15.634Z,3.13
2022-08-07T00:07:22.600Z,2.88
2022-08-07T00:09:35.561Z,2.60
2022-08-07T00:11:54.452Z,2.88
2022-08-07T00:14:03.071Z,2.50
2022-08-07T00:16:09.798Z,2.58
2022-08-07T00:18:25.028Z,2.80
2022-08-07T00:20:34.407Z,2.83
2022-08-07T00:22:40.022Z,2.58
2022-08-07T00:24:46.930Z,2.55
2022-08-07T00:27:06.413Z,2.47
2022-08-07T00:29:14.369Z,2.97
2022-08-07T00:31:21.017Z,2.63
2022-08-07T00:33:28.873Z,2.90
2022-08-07T00:35:40.789Z,2.53
2022-08-07T00:37:47.955Z,2.80
2022-08-07T00:39:55.499Z,2.60
2022-08-07T00:42:02.222Z,2.60
2022-08-07T00:44:10.402Z,2.60
2022-08-07T00:46:21.657Z,2.67
2022-08-07T00:48:30.914Z,2.67
2022-08-07T00:50:46.286Z,2.22
2022-08-07T00:52:58.265Z,2.78
2022-08-07T00:55:10.616Z,2.63
2022-08-07T00:57:15.869Z,2.53
2022-08-07T00:59:35.884Z,2.58
2022-08-07T01:01:41.524Z,2.63
2022-08-07T01:03:55.639Z,2.28
2022-08-07T01:06:06.414Z,2.38
2022-08-07T01:08:12.829Z,2.67
2022-08-07T01:10:18.407Z,2.85
2022-08-07T01:12:30.121Z,2.45
2022-08-07T01:14:38.281Z,2.60
2022-08-07T01:16:43.368Z,2.70
2022-08-07T01:18:55.693Z,3.70
2022-08-07T01:21:17.555Z,3.28
2022-08-07T01:23:38.163Z,3.60
2022-08-07T01:25:56.045Z,3.50
2022-08-07T01:28:01.918Z,3.60
2022-08-07T01:30:07.241Z,3.47
2022-08-07T01:32:16.785Z,3.70
2022-08-07T01:34:30.702Z,3.13
2022-08-07T01:36:40.843Z,2.88
2022-08-07T01:38:50.416Z,3.13
2022-08-07T01:41:02.538Z,2.85
2022-08-07T01:43:07.697Z,2.85
2022-08-07T01:45:17.895Z,2.70
2022-08-07T01:48:18.534Z,3.08
2022-08-07T01:49:57.670Z,2.50
2022-08-07T01:52:10.022Z,2.47
2022-08-07T01:54:32.539Z,2.58
2022-08-07T01:56:57.841Z,2.50
2022-08-07T01:59:08.300Z,2.70
2022-08-07T02:01:59.457Z,2.25
2022-08-07T02:04:07.339Z,2.90
2022-08-07T02:06:31.365Z,2.92
2022-08-07T02:08:43.457Z,2.35
2022-08-07T02:10:55.333Z,2.13
2022-08-07T02:13:07.822Z,2.28
2022-08-07T02:15:22.723Z,2.30
2022-08-07T02:17:31.824Z,2.22
2022-08-07T02:20:04.182Z,2.30
2022-08-07T02:22:04.132Z,2.47
2022-08-07T02:24:13.249Z,2.47
2022-08-07T02:26:33.093Z,2.05
2022-08-07T02:28:53.244Z,2.53
2022-08-07T02:30:59.453Z,2.30
2022-08-07T02:33:11.004Z,2.22
2022-08-07T02:35:20.332Z,2.40
2022-08-07T02:37:46.201Z,2.28
2022-08-07T02:40:02.099Z,2.35
2022-08-07T02:42:20.340Z,2.50
2022-08-07T02:44:30.344Z,2.35
2022-08-07T02:46:46.791Z,2.38
2022-08-07T02:48:58.545Z,2.40
2022-08-07T02:51:28.941Z,2.42
2022-08-07T02:53:38.929Z,2.65
2022-08-07T02:56:02.246Z,2.50
2022-08-07T02:58:12.315Z,2.35
2022-08-07T03:00:20.730Z,2.90
2022-08-07T03:02:26.202Z,2.47
2022-08-07T03:04:31.491Z,2.30
2022-08-07T03:06:37.759Z,2.65
2022-08-07T03:08:45.472Z,2.50
2022-08-07T03:10:50.733Z,2.50
2022-08-07T03:13:01.880Z,2.40
2022-08-07T03:15:10.154Z,2.28
2022-08-07T03:17:17.016Z,2.35
2022-08-07T03:19:21.790Z,2.40
2022-08-07T03:21:28.903Z,2.35
2022-08-07T03:24:19.872Z,2.25
2022-08-07T03:26:10.108Z,2.40
2022-08-07T03:28:38.089Z,2.00
2022-08-07T03:30:45.384Z,2.30
2022-08-07T03:32:58.714Z,2.00
2022-08-07T03:35:17.973Z,2.28
2022-08-07T03:37:27.607Z,2.17
2022-08-07T03:39:46.416Z,2.70
2022-08-07T03:42:02.289Z,2.33
2022-08-07T03:44:07.198Z,2.35
2022-08-07T03:46:18.316Z,2.10
2022-08-07T03:48:30.648Z,2.30
2022-08-07T03:50:36.086Z,2.15
2022-08-07T03:52:43.026Z,2.10
2022-08-07T03:54:54.637Z,2.15
2022-08-07T03:57:07.479Z,2.35
2022-08-07T03:59:17.086Z,1.90
2022-08-07T04:01:25.758Z,2.30
2022-08-07T04:03:49.772Z,2.20
2022-08-07T04:05:58.793Z,2.10
2022-08-07T04:08:07.393Z,2.08
2022-08-07T04:10:19.415Z,2.15
2022-08-07T04:12:29.106Z,2.20
2022-08-07T04:14:38.962Z,2.65
2022-08-07T04:16:58.777Z,2.25
2022-08-07T04:19:12.630Z,2.17
2022-08-07T04:21:31.904Z,2.08
2022-08-07T04:23:43.871Z,2.10
2022-08-07T04:26:07.136Z,2.30
2022-08-07T04:28:13.601Z,2.20
2022-08-07T04:30:21.584Z,2.38
2022-08-07T04:32:58.441Z,1.98
2022-08-07T04:35:11.291Z,2.20
2022-08-07T04:37:20.411Z,2.10
2022-08-07T04:39:36.003Z,1.90
2022-08-07T04:41:44.393Z,2.00
2022-08-07T04:44:12.389Z,1.90
2022-08-07T04:47:04.515Z,1.75
2022-08-07T04:49:37.662Z,1.83
2022-08-07T04:52:04.955Z,1.90
2022-08-07T04:54:22.896Z,1.52
2022-08-07T04:58:11.699Z,2.08
2022-08-07T05:00:11.120Z,2.20
2022-08-07T05:02:50.108Z,2.10
2022-08-07T05:05:52.834Z,2.00
2022-08-07T05:08:12.209Z,2.08
2022-08-07T05:10:30.514Z,2.10
2022-08-07T05:12:52.885Z,2.05
2022-08-07T05:15:23.877Z,1.80
2022-08-07T05:18:00.874Z,2.25
2022-08-07T05:20:09.441Z,2.17
2022-08-07T05:22:26.954Z,2.03
2022-08-07T05:24:39.421Z,1.85
2022-08-07T05:26:46.245Z,1.95
2022-08-07T05:28:54.250Z,1.50
2022-08-07T05:31:04.643Z,1.60
2022-08-07T05:33:10.715Z,2.00
2022-08-07T05:35:33.114Z,1.95
2022-08-07T05:37:44.071Z,1.73
2022-08-07T05:40:05.382Z,1.88
2022-08-07T05:42:15.631Z,1.98
2022-08-07T05:44:46.641Z,2.90
2022-08-07T05:47:18.297Z,2.65
2022-08-07T05:49:26.124Z,2.30
2022-08-07T05:51:39.928Z,1.92
2022-08-07T05:56:12.406Z,1.70
2022-08-07T05:58:36.806Z,1.63
2022-08-07T06:00:46.329Z,3.67
2022-08-07T06:02:55.892Z,4.20
2022-08-07T06:05:15.621Z,2.90
2022-08-07T06:08:13.569Z,2.78
2022-08-07T06:10:04.333Z,2.17
2022-08-07T06:12:15.397Z,2.20
2022-08-07T06:14:21.245Z,1.77
2022-08-07T06:16:37.584Z,2.13
2022-08-07T06:18:51.729Z,2.40
2022-08-07T06:22:16.207Z,1.95
2022-08-07T06:23:46.707Z,2.70
2022-08-07T06:25:57.181Z,2.90
2022-08-07T06:28:09.465Z,2.10
2022-08-07T06:30:35.105Z,2.30
2022-08-07T06:32:44.684Z,1.85
2022-08-07T06:34:50.603Z,2.38
2022-08-07T06:36:55.636Z,2.17
2022-08-07T06:40:17.162Z,2.10
2022-08-07T06:42:02.045Z,2.50
2022-08-07T06:44:36.901Z,2.10
2022-08-07T06:46:44.527Z,2.05
2022-08-07T06:48:58.277Z,2.00
2022-08-07T06:51:10.901Z,2.38
2022-08-07T06:55:29.107Z,2.20
2022-08-07T06:56:00.189Z,2.17
2022-08-07T06:58:16.578Z,1.85
2022-08-07T07:00:32.706Z,2.45
2022-08-07T07:02:53.484Z,2.78
2022-08-07T07:05:02.781Z,2.28
2022-08-07T07:07:10.397Z,2.20
2022-08-07T07:09:31.127Z,1.77
2022-08-07T07:12:07.607Z,2.00
2022-08-07T07:14:05.100Z,1.80
2022-08-07T07:16:18.031Z,1.88
2022-08-07T07:18:47.807Z,1.70
2022-08-07T07:20:56.185Z,2.10
2022-08-07T07:24:10.184Z,2.10
2022-08-07T07:26:34.428Z,1.92
2022-08-07T07:28:42.167Z,2.38
2022-08-07T07:30:54.175Z,2.10
2022-08-07T07:32:59.465Z,2.17
2022-08-07T07:35:05.824Z,2.05
2022-08-07T07:37:44.228Z,1.88
2022-08-07T07:39:45.517Z,2.10
2022-08-07T07:42:13.486Z,2.00
2022-08-07T07:44:26.147Z,2.20
2022-08-07T07:46:54.241Z,2.63
2022-08-07T07:50:31.539Z,2.50
2022-08-07T07:51:27.939Z,2.70
2022-08-07T07:53:34.826Z,2.22
2022-08-07T07:55:45.710Z,2.10
2022-08-07T07:57:59.650Z,2.08
2022-08-07T08:00:06.726Z,2.13
2022-08-07T08:02:33.735Z,2.10
2022-08-07T08:04:43.263Z,2.70
2022-08-07T08:06:52.296Z,2.30
2022-08-07T08:08:58.227Z,2.58
2022-08-07T08:11:16.000Z,2.10
2022-08-07T08:13:22.649Z,2.10
2022-08-07T08:15:57.741Z,2.22
2022-08-07T08:18:18.130Z,2.60
2022-08-07T08:20:27.405Z,2.95
2022-08-07T08:22:55.947Z,2.80
2022-08-07T08:25:24.636Z,2.58
2022-08-07T08:27:38.479Z,1.90
2022-08-07T08:29:54.538Z,1.20
2022-08-07T08:32:17.952Z,1.50
2022-08-07T08:34:27.163Z,1.63
2022-08-07T08:36:34.352Z,1.42
2022-08-07T08:38:44.535Z,1.70
2022-08-07T08:41:12.974Z,1.52
2022-08-07T08:43:42.038Z,1.45
2022-08-07T08:46:13.265Z,1.52
2022-08-07T08:48:32.544Z,1.67
2022-08-07T08:50:54.167Z,2.15
2022-08-07T08:53:06.392Z,2.22
2022-08-07T08:55:55.495Z,1.83
2022-08-07T08:58:28.928Z,1.83
2022-08-07T09:00:42.630Z,1.60
2022-08-07T09:03:01.803Z,1.58
2022-08-07T09:05:41.049Z,2.08
2022-08-07T09:08:01.354Z,2.15
2022-08-07T09:10:16.126Z,2.15
2022-08-07T09:12:40.734Z,1.90
2022-08-07T09:16:25.298Z,2.03
2022-08-07T09:18:15.785Z,2.47
2022-08-07T09:20:42.379Z,2.85
2022-08-07T09:24:31.344Z,2.97
2022-08-07T09:26:26.472Z,2.70
2022-08-07T09:30:01.234Z,2.08
2022-08-07T09:31:26.411Z,2.03
2022-08-07T09:34:14.589Z,2.40
2022-08-07T09:36:43.122Z,4.10
2022-08-07T09:39:11.525Z,2.95
2022-08-07T09:41:58.886Z,3.22
2022-08-07T09:45:03.525Z,3.70
2022-08-07T09:47:56.007Z,4.53
2022-08-07T09:50:19.663Z,4.35
2022-08-07T09:52:53.885Z,4.80
2022-08-07T09:55:17.051Z,5.13
2022-08-07T09:58:14.954Z,4.72
2022-08-07T10:00:24.346Z,4.70
2022-08-07T10:04:03.678Z,4.53
2022-08-07T10:05:59.841Z,5.05
2022-08-07T10:08:36.934Z,6.15
2022-08-07T10:11:59.476Z,5.53
2022-08-07T10:14:00.510Z,5.63
2022-08-07T10:16:38.395Z,5.07
2022-08-07T10:18:53.424Z,5.78
2022-08-07T10:21:50.632Z,6.30
2022-08-07T10:24:05.194Z,6.35
2022-08-07T10:26:28.692Z,6.10
2022-08-07T10:29:14.644Z,5.90
2022-08-07T10:31:38.806Z,6.10
2022-08-07T10:34:05.932Z,5.50
2022-08-07T10:36:29.605Z,5.47
2022-08-07T10:38:59.799Z,5.32
2022-08-07T10:41:47.370Z,7.25
2022-08-07T10:44:07.553Z,5.38
2022-08-07T10:46:20.543Z,5.35
2022-08-07T10:48:57.789Z,5.55
2022-08-07T10:51:39.427Z,4.60
2022-08-07T10:54:02.632Z,4.60
2022-08-07T10:56:31.603Z,4.10
2022-08-07T10:59:21.237Z,4.22
2022-08-07T11:01:35.891Z,3.88
2022-08-07T11:04:32.062Z,4.25
2022-08-07T11:06:57.953Z,4.13
2022-08-07T11:10:08.797Z,4.03
2022-08-07T11:11:51.976Z,4.25
2022-08-07T11:14:44.470Z,4.80
2022-08-07T11:17:08.997Z,4.30
2022-08-07T11:19:48.488Z,4.57
2022-08-07T11:22:27.404Z,4.50
2022-08-07T11:24:52.032Z,4.32
2022-08-07T11:27:33.520Z,4.55
2022-08-07T11:30:17.877Z,4.68
2022-08-07T11:32:56.741Z,4.18
2022-08-07T11:35:05.801Z,3.78
2022-08-07T11:37:38.488Z,3.85
2022-08-07T11:40:19.313Z,4.13
2022-08-07T11:42:37.761Z,3.60
2022-08-07T11:45:08.302Z,4.60
2022-08-07T11:47:55.903Z,4.13
2022-08-07T11:50:32.797Z,4.20
2022-08-07T11:53:05.034Z,4.25
2022-08-07T11:56:14.022Z,4.85
2022-08-07T11:58:16.479Z,5.32
2022-08-07T12:01:02.087Z,5.05
2022-08-07T12:03:45.341Z,5.22
2022-08-07T12:06:37.968Z,4.70
2022-08-07T12:08:57.433Z,4.82
2022-08-07T12:11:21.887Z,4.97
2022-08-07T12:13:47.469Z,5.07
2022-08-07T12:16:06.827Z,5.55
2022-08-07T12:18:38.069Z,5.25
2022-08-07T12:21:08.943Z,6.10
2022-08-07T12:24:06.753Z,5.60
2022-08-07T12:26:35.474Z,5.80
2022-08-07T12:29:11.311Z,5.05
2022-08-07T12:31:53.291Z,4.80
2022-08-07T12:34:01.843Z,5.20
2022-08-07T12:36:08.877Z,4.65
2022-08-07T12:38:30.643Z,4.85
2022-08-07T12:40:47.481Z,5.28
2022-08-07T12:42:57.639Z,5.72
2022-08-07T12:45:25.373Z,5.47
2022-08-07T12:47:51.706Z,5.60
2022-08-07T12:50:39.285Z,5.82
2022-08-07T12:53:01.106Z,5.93
2022-08-07T12:55:40.839Z,5.75
2022-08-07T12:58:01.395Z,6.78
2022-08-07T13:00:16.492Z,9.07
2022-08-07T13:02:55.169Z,7.20
2022-08-07T13:06:02.733Z,6.07
2022-08-07T13:08:28.157Z,4.95
2022-08-07T13:11:08.503Z,5.10
2022-08-07T13:13:47.352Z,4.70
2022-08-07T13:16:19.906Z,5.18
2022-08-07T13:18:48.974Z,5.38
2022-08-07T13:21:23.606Z,5.40
2022-08-07T13:24:04.991Z,5.63
2022-08-07T13:26:19.980Z,5.80
2022-08-07T13:28:48.400Z,5.68
2022-08-07T13:31:13.465Z,6.60
2022-08-07T13:34:31.225Z,6.38
2022-08-07T13:36:05.259Z,6.93
2022-08-07T13:38:34.270Z,6.90
2022-08-07T13:40:49.275Z,6.75
2022-08-07T13:43:03.916Z,6.20
2022-08-07T13:46:07.163Z,6.28
2022-08-07T13:48:06.821Z,5.70
2022-08-07T13:50:35.745Z,5.75
2022-08-07T13:52:38.178Z,5.82
2022-08-07T13:54:49.273Z,5.65
2022-08-07T13:56:59.760Z,5.78
2022-08-07T13:59:10.330Z,5.65
2022-08-07T14:01:20.414Z,5.00
2022-08-07T14:03:34.090Z,5.38
2022-08-07T14:06:00.374Z,5.15
2022-08-07T14:08:05.055Z,5.10
2022-08-07T14:10:21.682Z,5.47
2022-08-07T14:13:00.977Z,5.85
2022-08-07T14:15:08.668Z,5.38
2022-08-07T14:18:12.501Z,5.35
2022-08-07T14:20:43.229Z,5.50
2022-08-07T14:22:33.904Z,5.55
2022-08-07T14:24:44.243Z,6.57
2022-08-07T14:26:56.296Z,6.75
2022-08-07T14:29:10.528Z,7.18
2022-08-07T14:31:43.459Z,6.78
2022-08-07T14:33:55.009Z,7.60
2022-08-07T14:36:06.444Z,7.60
2022-08-07T14:38:26.665Z,7.53
2022-08-07T14:40:38.631Z,7.38
2022-08-07T14:43:55.427Z,7.20
2022-08-07T14:47:40.718Z,7.25
2022-08-07T14:49:56.481Z,7.22
2022-08-07T14:52:14.190Z,7.63
2022-08-07T14:54:34.494Z,7.72
2022-08-07T14:56:43.027Z,7.85
2022-08-07T14:58:55.309Z,7.35
2022-08-07T15:01:21.776Z,7.38
2022-08-07T15:03:51.591Z,7.80
2022-08-07T15:06:04.008Z,7.60
2022-08-07T15:08:13.913Z,7.13
2022-08-07T15:10:30.107Z,7.30
2022-08-07T15:12:59.955Z,7.35
2022-08-07T15:15:22.570Z,7.53
2022-08-07T15:17:54.945Z,7.35
2022-08-07T15:22:33.413Z,7.65
2022-08-07T15:25:15.439Z,7.80
2022-08-07T15:27:15.602Z,7.05
2022-08-07T15:30:06.418Z,7.22
2022-08-07T15:32:00.727Z,7.00
2022-08-07T15:34:12.409Z,6.22
2022-08-07T15:36:26.290Z,6.35
2022-08-07T15:38:58.917Z,5.78
2022-08-07T15:43:55.967Z,6.20
2022-08-07T15:46:31.070Z,5.93
2022-08-07T15:48:34.810Z,5.68
2022-08-07T15:51:07.959Z,6.05
2022-08-07T15:53:16.472Z,5.68
2022-08-07T15:56:02.029Z,5.85
2022-08-07T15:58:00.143Z,6.00
2022-08-07T16:00:07.543Z,6.00
2022-08-07T16:02:25.106Z,6.28
2022-08-07T16:04:35.960Z,6.78
2022-08-07T16:06:58.603Z,6.90
2022-08-07T16:09:22.687Z,7.43
2022-08-07T16:11:55.447Z,7.78
2022-08-07T16:14:21.935Z,8.07
2022-08-07T16:16:56.858Z,7.57
2022-08-07T16:19:42.605Z,8.27
2022-08-07T16:22:33.691Z,8.40
2022-08-07T16:24:52.607Z,8.27
2022-08-07T16:27:40.838Z,8.40
2022-08-07T16:30:30.171Z,8.35
2022-08-07T16:32:54.098Z,9.40
2022-08-07T16:35:52.394Z,8.82
2022-08-07T16:38:09.435Z,8.18
2022-08-07T16:40:51.100Z,9.90
2022-08-07T16:44:06.183Z,9.18
2022-08-07T16:47:05.730Z,8.45
2022-08-07T16:50:27.838Z,7.32
2022-08-07T16:52:49.288Z,8.02
2022-08-07T16:55:13.157Z,7.40
2022-08-07T16:58:02.781Z,7.47
2022-08-07T17:00:17.099Z,7.30
2022-08-07T17:02:53.896Z,7.40
2022-08-07T17:06:19.003Z,7.25
2022-08-07T17:07:58.947Z,7.13
2022-08-07T17:10:33.023Z,6.65
2022-08-07T17:13:08.606Z,6.32
2022-08-07T17:15:44.314Z,5.93
2022-08-07T17:18:14.227Z,7.00
2022-08-07T17:20:38.504Z,7.00
2022-08-07T17:23:20.135Z,6.97
2022-08-07T17:25:51.721Z,6.65
2022-08-07T17:28:08.112Z,6.65
2022-08-07T17:30:20.113Z,6.97
2022-08-07T17:32:52.793Z,6.30
2022-08-07T17:35:49.744Z,6.70
2022-08-07T17:38:05.959Z,7.53
2022-08-07T17:40:08.199Z,6.72
2022-08-07T17:42:59.797Z,7.75
2022-08-07T17:45:28.088Z,7.82
2022-08-07T17:47:59.537Z,8.30
2022-08-07T17:50:14.361Z,6.93
2022-08-07T17:52:33.229Z,8.07
2022-08-07T17:55:06.714Z,7.88
2022-08-07T17:57:56.739Z,7.72
2022-08-07T17:59:54.522Z,8.20
2022-08-07T18:02:40.184Z,7.78
2022-08-07T18:06:02.756Z,7.60
2022-08-07T18:08:21.127Z,8.07
2022-08-07T18:12:16.865Z,7.88
2022-08-07T18:13:40.695Z,8.50
2022-08-07T18:16:30.948Z,7.95
2022-08-07T18:21:03.958Z,7.85
2022-08-07T18:21:57.874Z,8.45
2022-08-07T18:24:34.704Z,8.90
2022-08-07T18:27:10.491Z,8.18
2022-08-07T18:30:06.028Z,9.13
2022-08-07T18:32:46.387Z,7.85
2022-08-07T18:35:19.763Z,7.03
2022-08-07T18:38:55.758Z,7.47
2022-08-07T18:40:53.549Z,6.82
2022-08-07T18:43:15.078Z,7.22
2022-08-07T18:45:44.923Z,7.50
2022-08-07T18:48:02.730Z,7.50
2022-08-07T18:50:45.901Z,7.63
2022-08-07T18:53:18.662Z,7.72
2022-08-07T18:55:56.181Z,7.70
2022-08-07T18:58:34.947Z,7.70
2022-08-07T19:01:02.960Z,7.65
2022-08-07T19:03:42.938Z,7.35
2022-08-07T19:06:09.059Z,6.45
2022-08-07T19:08:24.465Z,5.35
2022-08-07T19:10:51.348Z,5.32
2022-08-07T19:13:11.923Z,5.35
2022-08-07T19:16:04.438Z,5.82
2022-08-07T19:18:34.828Z,5.55
2022-08-07T19:21:09.023Z,5.80
2022-08-07T19:23:58.451Z,5.40
2022-08-07T19:26:23.560Z,6.47
2022-08-07T19:30:56.981Z,5.85
2022-08-07T19:31:41.550Z,6.20
2022-08-07T19:33:34.859Z,6.03
2022-08-07T19:35:41.856Z,6.05
2022-08-07T19:37:57.175Z,5.03
2022-08-07T19:40:05.715Z,5.50
2022-08-07T19:42:23.280Z,4.63
2022-08-07T19:44:34.713Z,4.82
2022-08-07T19:46:55.376Z,4.57
2022-08-07T19:49:08.561Z,3.97
2022-08-07T19:51:20.033Z,3.78
2022-08-07T19:54:35.359Z,3.95
2022-08-07T19:55:58.001Z,3.15
2022-08-07T19:58:13.782Z,2.67
2022-08-07T20:00:29.745Z,3.00
2022-08-07T20:02:51.651Z,2.92
2022-08-07T20:04:57.789Z,2.90
2022-08-07T20:07:11.094Z,2.85
2022-08-07T20:10:35.472Z,2.97
2022-08-07T20:12:22.994Z,3.75
2022-08-07T20:14:23.086Z,3.42
2022-08-07T20:16:36.966Z,2.90
2022-08-07T20:18:44.394Z,2.90
2022-08-07T20:20:53.527Z,2.40
2022-08-07T20:23:10.935Z,2.47
2022-08-07T20:25:40.448Z,2.88
2022-08-07T20:28:00.711Z,2.35
2022-08-07T20:30:11.614Z,2.30
2022-08-07T20:32:22.677Z,2.20
2022-08-07T20:34:50.270Z,2.00
2022-08-07T20:36:56.259Z,2.05
2022-08-07T20:39:17.753Z,1.60
2022-08-07T20:41:38.125Z,1.40
2022-08-07T20:43:47.893Z,1.30
2022-08-07T20:46:28.667Z,1.10
2022-08-07T20:48:29.884Z,0.88
2022-08-07T20:50:35.330Z,0.40
2022-08-07T20:52:52.048Z,0.50
2022-08-07T20:55:01.559Z,0.40
2022-08-07T20:57:08.327Z,0.40
2022-08-07T21:00:04.634Z,0.47
2022-08-07T21:01:55.191Z,0.60
2022-08-07T21:04:22.712Z,0.60
2022-08-07T21:06:31.562Z,0.70
2022-08-07T21:09:13.983Z,0.73
2022-08-07T21:11:22.125Z,0.50
2022-08-07T21:13:43.658Z,0.50
2022-08-07T21:16:04.939Z,0.40
2022-08-07T21:18:29.692Z,0.40
2022-08-07T21:20:40.913Z,0.50
2022-08-07T21:22:58.080Z,0.32
2022-08-07T21:25:29.905Z,1.35
2022-08-07T21:28:50.149Z,1.40
2022-08-07T21:31:08.820Z,0.80
2022-08-07T21:33:24.252Z,0.57
2022-08-07T21:36:11.979Z,0.63
2022-08-07T21:38:58.083Z,0.80
2022-08-07T21:41:18.573Z,0.90
2022-08-07T21:43:47.344Z,0.90
2022-08-07T21:46:11.315Z,1.00
2022-08-07T21:48:44.085Z,1.60
2022-08-07T21:50:54.113Z,2.58
2022-08-07T21:53:20.199Z,4.80
2022-08-07T21:55:31.012Z,3.63
2022-08-07T21:58:07.894Z,2.60
2022-08-07T22:00:22.809Z,1.55
2022-08-07T22:02:59.465Z,1.40
2022-08-07T22:05:04.454Z,0.90
2022-08-07T22:07:35.707Z,9.18
2022-08-07T22:09:54.037Z,20.10
2022-08-07T22:12:17.591Z,6.47
2022-08-07T22:14:34.949Z,3.88
2022-08-07T22:16:47.525Z,1.33
2022-08-07T22:19:29.711Z,1.67
2022-08-07T22:22:04.602Z,1.52
2022-08-07T22:24:19.342Z,0.95
2022-08-07T22:26:28.625Z,1.05
2022-08-07T22:29:00.179Z,0.98
2022-08-07T22:31:59.641Z,1.90
2022-08-07T22:33:57.679Z,1.60
2022-08-07T22:36:11.980Z,1.50
2022-08-07T22:38:39.304Z,1.55
2022-08-07T22:41:14.163Z,7.57
2022-08-07T22:43:27.954Z,6.88
2022-08-07T22:46:46.706Z,9.40
2022-08-07T22:49:07.808Z,36.30
2022-08-07T22:51:49.327Z,28.63
2022-08-07T22:54:22.337Z,30.58
2022-08-07T22:56:42.157Z,16.05
2022-08-07T22:59:32.496Z,26.45
2022-08-07T23:02:05.937Z,13.65
2022-08-07T23:04:58.554Z,6.47
2022-08-07T23:07:41.274Z,3.65
2022-08-07T23:10:37.844Z,2.45
2022-08-07T23:13:17.700Z,2.20
2022-08-07T23:16:05.547Z,3.60
2022-08-07T23:18:32.164Z,3.60
2022-08-07T23:21:01.093Z,4.75
2022-08-07T23:24:06.669Z,6.40
2022-08-07T23:26:23.456Z,5.95
2022-08-07T23:28:54.657Z,5.28
2022-08-07T23:32:49.546Z,3.53
2022-08-07T23:34:37.461Z,3.08
2022-08-07T23:37:19.052Z,2.42
2022-08-07T23:39:55.339Z,1.83
2022-08-07T23:42:21.996Z,1.75
2022-08-07T23:44:58.701Z,2.58
2022-08-07T23:47:42.127Z,6.85
2022-08-07T23:50:01.118Z,3.30
2022-08-07T23:52:59.894Z,2.80
2022-08-07T23:55:02.007Z,2.70
2022-08-07T23:57:34.837Z,2.53
